sensor_id;sensor_type;location;lat;lon;timestamp;P1;durP1;ratioP1;P2;durP2;ratioP2
25936;SDS011;13733;51.178;4.450;2022-11-20T00:01:24;26.25;;;19.88;;
25936;SDS011;13733;51.178;4.450;2022-11-20T00:03:51;30.20;;;20.33;;
25936;SDS011;13733;51.178;4.450;2022-11-20T00:06:18;28.42;;;19.45;;
25936;SDS011;13733;51.178;4.450;2022-11-20T00:08:46;26.38;;;20.10;;
25936;SDS011;13733;51.178;4.450;2022-11-20T00:11:13;26.48;;;19.95;;
25936;SDS011;13733;51.178;4.450;2022-11-20T00:13:39;27.30;;;19.13;;
25936;SDS011;13733;51.178;4.450;2022-11-20T00:16:06;24.52;;;18.55;;
25936;SDS011;13733;51.178;4.450;2022-11-20T00:18:33;25.27;;;18.92;;
25936;SDS011;13733;51.178;4.450;2022-11-20T00:21:00;26.85;;;18.95;;
25936;SDS011;13733;51.178;4.450;2022-11-20T00:23:27;26.10;;;19.35;;
25936;SDS011;13733;51.178;4.450;2022-11-20T00:25:53;26.42;;;18.10;;
25936;SDS011;13733;51.178;4.450;2022-11-20T00:28:18;26.73;;;19.35;;
25936;SDS011;13733;51.178;4.450;2022-11-20T00:30:44;23.42;;;18.10;;
25936;SDS011;13733;51.178;4.450;2022-11-20T00:33:10;25.60;;;18.05;;
25936;SDS011;13733;51.178;4.450;2022-11-20T00:35:35;26.95;;;19.17;;
25936;SDS011;13733;51.178;4.450;2022-11-20T00:38:01;25.67;;;18.63;;
25936;SDS011;13733;51.178;4.450;2022-11-20T00:40:27;24.85;;;18.10;;
25936;SDS011;13733;51.178;4.450;2022-11-20T00:42:52;26.27;;;18.58;;
25936;SDS011;13733;51.178;4.450;2022-11-20T00:45:18;25.77;;;18.40;;
25936;SDS011;13733;51.178;4.450;2022-11-20T00:47:44;25.88;;;18.92;;
25936;SDS011;13733;51.178;4.450;2022-11-20T00:50:09;25.30;;;19.50;;
25936;SDS011;13733;51.178;4.450;2022-11-20T00:52:35;26.70;;;19.23;;
25936;SDS011;13733;51.178;4.450;2022-11-20T00:55:00;24.83;;;18.52;;
25936;SDS011;13733;51.178;4.450;2022-11-20T00:57:26;25.48;;;18.30;;
25936;SDS011;13733;51.178;4.450;2022-11-20T00:59:52;30.63;;;18.77;;
25936;SDS011;13733;51.178;4.450;2022-11-20T01:02:17;23.02;;;17.95;;
25936;SDS011;13733;51.178;4.450;2022-11-20T01:04:43;24.17;;;17.92;;
25936;SDS011;13733;51.178;4.450;2022-11-20T01:07:09;22.08;;;17.20;;
25936;SDS011;13733;51.178;4.450;2022-11-20T01:09:35;25.52;;;18.48;;
25936;SDS011;13733;51.178;4.450;2022-11-20T01:12:00;29.42;;;19.67;;
25936;SDS011;13733;51.178;4.450;2022-11-20T01:14:26;26.05;;;18.90;;
25936;SDS011;13733;51.178;4.450;2022-11-20T01:16:51;23.73;;;17.63;;
25936;SDS011;13733;51.178;4.450;2022-11-20T01:19:18;25.38;;;18.58;;
25936;SDS011;13733;51.178;4.450;2022-11-20T01:21:46;25.52;;;18.35;;
25936;SDS011;13733;51.178;4.450;2022-11-20T01:24:15;26.55;;;18.60;;
25936;SDS011;13733;51.178;4.450;2022-11-20T01:26:43;23.90;;;18.73;;
25936;SDS011;13733;51.178;4.450;2022-11-20T01:29:20;25.25;;;18.55;;
25936;SDS011;13733;51.178;4.450;2022-11-20T01:31:47;25.40;;;17.80;;
25936;SDS011;13733;51.178;4.450;2022-11-20T01:34:14;28.42;;;18.70;;
25936;SDS011;13733;51.178;4.450;2022-11-20T01:36:42;25.75;;;18.70;;
25936;SDS011;13733;51.178;4.450;2022-11-20T01:39:15;27.88;;;19.17;;
25936;SDS011;13733;51.178;4.450;2022-11-20T01:41:46;27.52;;;18.85;;
25936;SDS011;13733;51.178;4.450;2022-11-20T01:52:33;26.80;;;18.35;;
25936;SDS011;13733;51.178;4.450;2022-11-20T01:55:13;27.35;;;20.23;;
25936;SDS011;13733;51.178;4.450;2022-11-20T01:57:44;23.38;;;17.40;;
25936;SDS011;13733;51.178;4.450;2022-11-20T02:00:13;26.73;;;18.70;;
25936;SDS011;13733;51.178;4.450;2022-11-20T02:02:42;26.23;;;18.83;;
25936;SDS011;13733;51.178;4.450;2022-11-20T02:08:17;25.52;;;18.60;;
25936;SDS011;13733;51.178;4.450;2022-11-20T02:10:44;25.48;;;18.65;;
25936;SDS011;13733;51.178;4.450;2022-11-20T02:13:09;24.83;;;18.40;;
25936;SDS011;13733;51.178;4.450;2022-11-20T02:15:54;25.83;;;18.90;;
25936;SDS011;13733;51.178;4.450;2022-11-20T02:18:20;26.48;;;18.98;;
25936;SDS011;13733;51.178;4.450;2022-11-20T02:20:47;26.77;;;19.38;;
25936;SDS011;13733;51.178;4.450;2022-11-20T02:23:29;26.67;;;19.90;;
25936;SDS011;13733;51.178;4.450;2022-11-20T02:26:03;29.63;;;20.00;;
25936;SDS011;13733;51.178;4.450;2022-11-20T02:28:32;26.58;;;19.40;;
25936;SDS011;13733;51.178;4.450;2022-11-20T02:30:58;28.50;;;19.70;;
25936;SDS011;13733;51.178;4.450;2022-11-20T02:33:24;29.00;;;19.35;;
25936;SDS011;13733;51.178;4.450;2022-11-20T02:35:49;26.30;;;19.25;;
25936;SDS011;13733;51.178;4.450;2022-11-20T02:38:15;31.05;;;20.92;;
25936;SDS011;13733;51.178;4.450;2022-11-20T02:40:41;28.30;;;20.77;;
25936;SDS011;13733;51.178;4.450;2022-11-20T02:43:07;30.27;;;21.08;;
25936;SDS011;13733;51.178;4.450;2022-11-20T02:45:34;28.80;;;21.10;;
25936;SDS011;13733;51.178;4.450;2022-11-20T02:48:00;30.67;;;21.83;;
25936;SDS011;13733;51.178;4.450;2022-11-20T02:50:26;30.55;;;22.15;;
25936;SDS011;13733;51.178;4.450;2022-11-20T02:52:51;37.15;;;21.90;;
25936;SDS011;13733;51.178;4.450;2022-11-20T02:55:17;28.73;;;20.70;;
25936;SDS011;13733;51.178;4.450;2022-11-20T02:57:43;29.15;;;20.67;;
25936;SDS011;13733;51.178;4.450;2022-11-20T03:00:09;32.72;;;21.65;;
25936;SDS011;13733;51.178;4.450;2022-11-20T03:02:35;28.48;;;21.33;;
25936;SDS011;13733;51.178;4.450;2022-11-20T03:05:01;29.90;;;21.48;;
25936;SDS011;13733;51.178;4.450;2022-11-20T03:07:26;28.45;;;21.25;;
25936;SDS011;13733;51.178;4.450;2022-11-20T03:09:52;31.20;;;21.77;;
25936;SDS011;13733;51.178;4.450;2022-11-20T03:12:18;28.95;;;21.15;;
25936;SDS011;13733;51.178;4.450;2022-11-20T03:14:43;34.47;;;21.60;;
25936;SDS011;13733;51.178;4.450;2022-11-20T03:17:09;33.35;;;22.20;;
25936;SDS011;13733;51.178;4.450;2022-11-20T03:19:35;30.70;;;21.02;;
25936;SDS011;13733;51.178;4.450;2022-11-20T03:22:00;30.25;;;20.85;;
25936;SDS011;13733;51.178;4.450;2022-11-20T03:24:26;32.88;;;22.13;;
25936;SDS011;13733;51.178;4.450;2022-11-20T03:26:52;26.65;;;20.40;;
25936;SDS011;13733;51.178;4.450;2022-11-20T03:29:18;29.27;;;20.98;;
25936;SDS011;13733;51.178;4.450;2022-11-20T03:31:43;30.08;;;21.27;;
25936;SDS011;13733;51.178;4.450;2022-11-20T03:34:10;31.92;;;21.73;;
25936;SDS011;13733;51.178;4.450;2022-11-20T03:36:40;31.73;;;21.80;;
25936;SDS011;13733;51.178;4.450;2022-11-20T03:39:06;37.72;;;23.52;;
25936;SDS011;13733;51.178;4.450;2022-11-20T03:41:35;33.63;;;23.45;;
25936;SDS011;13733;51.178;4.450;2022-11-20T03:44:04;41.13;;;26.20;;
25936;SDS011;13733;51.178;4.450;2022-11-20T03:46:31;40.22;;;25.40;;
25936;SDS011;13733;51.178;4.450;2022-11-20T03:48:57;43.30;;;27.60;;
25936;SDS011;13733;51.178;4.450;2022-11-20T03:51:24;47.53;;;27.83;;
25936;SDS011;13733;51.178;4.450;2022-11-20T03:53:55;45.70;;;27.77;;
25936;SDS011;13733;51.178;4.450;2022-11-20T03:56:23;46.67;;;27.95;;
25936;SDS011;13733;51.178;4.450;2022-11-20T03:58:50;44.70;;;28.92;;
25936;SDS011;13733;51.178;4.450;2022-11-20T04:01:20;50.00;;;29.38;;
25936;SDS011;13733;51.178;4.450;2022-11-20T04:03:48;47.10;;;28.70;;
25936;SDS011;13733;51.178;4.450;2022-11-20T04:06:16;48.28;;;28.63;;
25936;SDS011;13733;51.178;4.450;2022-11-20T04:08:43;50.17;;;30.27;;
25936;SDS011;13733;51.178;4.450;2022-11-20T04:11:19;47.72;;;28.65;;
25936;SDS011;13733;51.178;4.450;2022-11-20T04:13:48;54.85;;;31.88;;
25936;SDS011;13733;51.178;4.450;2022-11-20T04:16:15;50.25;;;31.80;;
25936;SDS011;13733;51.178;4.450;2022-11-20T04:18:42;49.80;;;31.05;;
25936;SDS011;13733;51.178;4.450;2022-11-20T04:21:08;58.08;;;33.85;;
25936;SDS011;13733;51.178;4.450;2022-11-20T04:23:35;49.90;;;31.45;;
25936;SDS011;13733;51.178;4.450;2022-11-20T04:26:08;59.50;;;32.85;;
25936;SDS011;13733;51.178;4.450;2022-11-20T04:28:35;52.22;;;30.73;;
25936;SDS011;13733;51.178;4.450;2022-11-20T04:31:11;51.45;;;31.10;;
25936;SDS011;13733;51.178;4.450;2022-11-20T04:33:42;50.85;;;30.85;;
25936;SDS011;13733;51.178;4.450;2022-11-20T04:36:12;47.70;;;28.88;;
25936;SDS011;13733;51.178;4.450;2022-11-20T04:38:40;49.28;;;30.77;;
25936;SDS011;13733;51.178;4.450;2022-11-20T04:41:06;49.03;;;31.67;;
25936;SDS011;13733;51.178;4.450;2022-11-20T04:43:33;45.97;;;30.35;;
25936;SDS011;13733;51.178;4.450;2022-11-20T04:45:59;44.83;;;28.08;;
25936;SDS011;13733;51.178;4.450;2022-11-20T04:48:26;47.10;;;29.45;;
25936;SDS011;13733;51.178;4.450;2022-11-20T04:50:53;50.88;;;31.00;;
25936;SDS011;13733;51.178;4.450;2022-11-20T04:53:19;47.45;;;31.13;;
25936;SDS011;13733;51.178;4.450;2022-11-20T04:55:46;47.40;;;30.17;;
25936;SDS011;13733;51.178;4.450;2022-11-20T04:58:12;47.45;;;29.85;;
25936;SDS011;13733;51.178;4.450;2022-11-20T05:00:38;49.78;;;29.80;;
25936;SDS011;13733;51.178;4.450;2022-11-20T05:03:04;48.17;;;30.35;;
25936;SDS011;13733;51.178;4.450;2022-11-20T05:05:30;48.55;;;31.35;;
25936;SDS011;13733;51.178;4.450;2022-11-20T05:07:56;50.22;;;30.15;;
25936;SDS011;13733;51.178;4.450;2022-11-20T05:10:23;50.80;;;31.90;;
25936;SDS011;13733;51.178;4.450;2022-11-20T05:12:51;53.90;;;31.50;;
25936;SDS011;13733;51.178;4.450;2022-11-20T05:15:18;50.40;;;29.85;;
25936;SDS011;13733;51.178;4.450;2022-11-20T05:17:50;52.67;;;31.75;;
25936;SDS011;13733;51.178;4.450;2022-11-20T05:20:17;49.55;;;30.33;;
25936;SDS011;13733;51.178;4.450;2022-11-20T05:22:43;50.00;;;31.77;;
25936;SDS011;13733;51.178;4.450;2022-11-20T05:25:09;50.78;;;31.05;;
25936;SDS011;13733;51.178;4.450;2022-11-20T05:27:36;52.15;;;31.50;;
25936;SDS011;13733;51.178;4.450;2022-11-20T05:30:02;49.17;;;31.20;;
25936;SDS011;13733;51.178;4.450;2022-11-20T05:32:29;45.30;;;30.30;;
25936;SDS011;13733;51.178;4.450;2022-11-20T05:34:54;52.67;;;31.55;;
25936;SDS011;13733;51.178;4.450;2022-11-20T05:37:20;52.05;;;31.17;;
25936;SDS011;13733;51.178;4.450;2022-11-20T05:39:45;58.30;;;31.98;;
25936;SDS011;13733;51.178;4.450;2022-11-20T05:42:11;53.33;;;32.55;;
25936;SDS011;13733;51.178;4.450;2022-11-20T05:44:55;53.40;;;32.28;;
25936;SDS011;13733;51.178;4.450;2022-11-20T05:47:27;47.10;;;31.67;;
25936;SDS011;13733;51.178;4.450;2022-11-20T05:49:56;51.75;;;29.88;;
25936;SDS011;13733;51.178;4.450;2022-11-20T05:52:21;55.05;;;32.47;;
25936;SDS011;13733;51.178;4.450;2022-11-20T05:54:47;56.47;;;32.08;;
25936;SDS011;13733;51.178;4.450;2022-11-20T05:57:13;50.92;;;31.25;;
25936;SDS011;13733;51.178;4.450;2022-11-20T05:59:38;52.45;;;30.83;;
25936;SDS011;13733;51.178;4.450;2022-11-20T06:02:04;54.97;;;31.92;;
25936;SDS011;13733;51.178;4.450;2022-11-20T06:04:30;52.20;;;31.77;;
25936;SDS011;13733;51.178;4.450;2022-11-20T06:06:55;54.65;;;31.50;;
25936;SDS011;13733;51.178;4.450;2022-11-20T06:09:21;52.67;;;31.65;;
25936;SDS011;13733;51.178;4.450;2022-11-20T06:11:47;59.90;;;32.78;;
25936;SDS011;13733;51.178;4.450;2022-11-20T06:14:12;55.15;;;33.22;;
25936;SDS011;13733;51.178;4.450;2022-11-20T06:16:38;51.22;;;31.05;;
25936;SDS011;13733;51.178;4.450;2022-11-20T06:19:04;50.72;;;31.90;;
25936;SDS011;13733;51.178;4.450;2022-11-20T06:21:29;50.50;;;31.25;;
25936;SDS011;13733;51.178;4.450;2022-11-20T06:23:55;48.17;;;30.75;;
25936;SDS011;13733;51.178;4.450;2022-11-20T06:26:22;51.75;;;31.20;;
25936;SDS011;13733;51.178;4.450;2022-11-20T06:28:50;50.97;;;32.05;;
25936;SDS011;13733;51.178;4.450;2022-11-20T06:31:18;51.65;;;31.50;;
25936;SDS011;13733;51.178;4.450;2022-11-20T06:33:45;52.35;;;32.03;;
25936;SDS011;13733;51.178;4.450;2022-11-20T06:36:13;53.97;;;30.92;;
25936;SDS011;13733;51.178;4.450;2022-11-20T06:38:40;50.20;;;30.92;;
25936;SDS011;13733;51.178;4.450;2022-11-20T06:41:06;50.17;;;31.20;;
25936;SDS011;13733;51.178;4.450;2022-11-20T06:43:35;49.50;;;30.80;;
25936;SDS011;13733;51.178;4.450;2022-11-20T06:46:01;50.80;;;31.40;;
25936;SDS011;13733;51.178;4.450;2022-11-20T06:48:27;51.28;;;32.10;;
25936;SDS011;13733;51.178;4.450;2022-11-20T06:50:54;53.45;;;31.52;;
25936;SDS011;13733;51.178;4.450;2022-11-20T06:53:20;49.55;;;30.67;;
25936;SDS011;13733;51.178;4.450;2022-11-20T06:55:47;54.80;;;33.22;;
25936;SDS011;13733;51.178;4.450;2022-11-20T06:58:13;51.47;;;31.80;;
25936;SDS011;13733;51.178;4.450;2022-11-20T07:00:40;50.20;;;31.13;;
25936;SDS011;13733;51.178;4.450;2022-11-20T07:03:06;53.53;;;31.88;;
25936;SDS011;13733;51.178;4.450;2022-11-20T07:05:34;52.45;;;32.20;;
25936;SDS011;13733;51.178;4.450;2022-11-20T07:08:00;50.75;;;31.15;;
25936;SDS011;13733;51.178;4.450;2022-11-20T07:10:26;49.58;;;32.78;;
25936;SDS011;13733;51.178;4.450;2022-11-20T07:12:52;51.72;;;32.85;;
25936;SDS011;13733;51.178;4.450;2022-11-20T07:15:19;49.38;;;31.15;;
25936;SDS011;13733;51.178;4.450;2022-11-20T07:17:46;52.25;;;32.55;;
25936;SDS011;13733;51.178;4.450;2022-11-20T07:20:12;50.22;;;30.73;;
25936;SDS011;13733;51.178;4.450;2022-11-20T07:22:38;47.05;;;31.02;;
25936;SDS011;13733;51.178;4.450;2022-11-20T07:25:04;46.70;;;30.33;;
25936;SDS011;13733;51.178;4.450;2022-11-20T07:27:31;48.13;;;31.23;;
25936;SDS011;13733;51.178;4.450;2022-11-20T07:29:57;49.83;;;30.95;;
25936;SDS011;13733;51.178;4.450;2022-11-20T07:32:22;52.50;;;32.20;;
25936;SDS011;13733;51.178;4.450;2022-11-20T07:34:48;52.00;;;31.65;;
25936;SDS011;13733;51.178;4.450;2022-11-20T07:37:14;45.20;;;28.98;;
25936;SDS011;13733;51.178;4.450;2022-11-20T07:39:40;48.00;;;30.05;;
25936;SDS011;13733;51.178;4.450;2022-11-20T07:42:06;44.55;;;30.70;;
25936;SDS011;13733;51.178;4.450;2022-11-20T07:44:36;51.50;;;31.53;;
25936;SDS011;13733;51.178;4.450;2022-11-20T07:47:01;46.50;;;29.50;;
25936;SDS011;13733;51.178;4.450;2022-11-20T07:49:27;44.10;;;29.50;;
25936;SDS011;13733;51.178;4.450;2022-11-20T07:51:53;45.45;;;29.27;;
25936;SDS011;13733;51.178;4.450;2022-11-20T07:54:19;51.30;;;30.45;;
25936;SDS011;13733;51.178;4.450;2022-11-20T07:56:45;46.67;;;29.25;;
25936;SDS011;13733;51.178;4.450;2022-11-20T07:59:13;48.08;;;30.30;;
25936;SDS011;13733;51.178;4.450;2022-11-20T08:01:39;48.95;;;31.13;;
25936;SDS011;13733;51.178;4.450;2022-11-20T08:04:05;51.15;;;31.00;;
25936;SDS011;13733;51.178;4.450;2022-11-20T08:06:31;47.85;;;29.88;;
25936;SDS011;13733;51.178;4.450;2022-11-20T08:08:57;48.28;;;30.45;;
25936;SDS011;13733;51.178;4.450;2022-11-20T08:11:23;49.55;;;29.80;;
25936;SDS011;13733;51.178;4.450;2022-11-20T08:14:07;48.20;;;29.10;;
25936;SDS011;13733;51.178;4.450;2022-11-20T08:16:39;49.40;;;30.77;;
25936;SDS011;13733;51.178;4.450;2022-11-20T08:19:10;47.85;;;29.83;;
25936;SDS011;13733;51.178;4.450;2022-11-20T08:21:37;46.65;;;28.55;;
25936;SDS011;13733;51.178;4.450;2022-11-20T08:24:03;44.60;;;29.00;;
25936;SDS011;13733;51.178;4.450;2022-11-20T08:26:29;43.28;;;28.75;;
25936;SDS011;13733;51.178;4.450;2022-11-20T08:28:55;43.53;;;28.48;;
25936;SDS011;13733;51.178;4.450;2022-11-20T08:31:23;49.05;;;30.45;;
25936;SDS011;13733;51.178;4.450;2022-11-20T08:33:49;48.97;;;28.58;;
25936;SDS011;13733;51.178;4.450;2022-11-20T08:36:15;46.30;;;29.23;;
25936;SDS011;13733;51.178;4.450;2022-11-20T08:38:42;50.38;;;30.30;;
25936;SDS011;13733;51.178;4.450;2022-11-20T08:41:11;46.53;;;29.17;;
25936;SDS011;13733;51.178;4.450;2022-11-20T08:43:56;44.13;;;27.25;;
25936;SDS011;13733;51.178;4.450;2022-11-20T08:46:22;46.88;;;28.27;;
25936;SDS011;13733;51.178;4.450;2022-11-20T08:48:50;51.33;;;30.77;;
25936;SDS011;13733;51.178;4.450;2022-11-20T08:51:16;51.05;;;30.75;;
25936;SDS011;13733;51.178;4.450;2022-11-20T08:53:43;55.22;;;30.90;;
25936;SDS011;13733;51.178;4.450;2022-11-20T08:56:09;49.78;;;29.55;;
25936;SDS011;13733;51.178;4.450;2022-11-20T08:58:35;47.95;;;29.50;;
25936;SDS011;13733;51.178;4.450;2022-11-20T09:01:02;50.38;;;29.77;;
25936;SDS011;13733;51.178;4.450;2022-11-20T09:03:27;49.20;;;28.48;;
25936;SDS011;13733;51.178;4.450;2022-11-20T09:05:57;54.88;;;31.15;;
25936;SDS011;13733;51.178;4.450;2022-11-20T09:08:27;51.15;;;29.33;;
25936;SDS011;13733;51.178;4.450;2022-11-20T09:10:54;53.67;;;31.58;;
25936;SDS011;13733;51.178;4.450;2022-11-20T09:13:21;48.88;;;29.65;;
25936;SDS011;13733;51.178;4.450;2022-11-20T09:16:01;51.88;;;29.40;;
25936;SDS011;13733;51.178;4.450;2022-11-20T09:18:29;55.00;;;32.53;;
25936;SDS011;13733;51.178;4.450;2022-11-20T09:21:00;55.60;;;31.42;;
25936;SDS011;13733;51.178;4.450;2022-11-20T09:23:30;49.85;;;29.98;;
25936;SDS011;13733;51.178;4.450;2022-11-20T09:28:26;54.85;;;30.08;;
25936;SDS011;13733;51.178;4.450;2022-11-20T09:30:52;55.67;;;30.42;;
25936;SDS011;13733;51.178;4.450;2022-11-20T09:33:17;54.67;;;30.70;;
25936;SDS011;13733;51.178;4.450;2022-11-20T09:35:44;53.15;;;30.10;;
25936;SDS011;13733;51.178;4.450;2022-11-20T09:38:10;56.38;;;30.35;;
25936;SDS011;13733;51.178;4.450;2022-11-20T09:40:37;53.70;;;29.65;;
25936;SDS011;13733;51.178;4.450;2022-11-20T09:56:42;60.53;;;31.67;;
25936;SDS011;13733;51.178;4.450;2022-11-20T09:59:27;57.80;;;30.88;;
25936;SDS011;13733;51.178;4.450;2022-11-20T10:02:25;58.60;;;30.58;;
25936;SDS011;13733;51.178;4.450;2022-11-20T10:15:49;68.03;;;33.08;;
25936;SDS011;13733;51.178;4.450;2022-11-20T10:30:09;75.10;;;33.70;;
25936;SDS011;13733;51.178;4.450;2022-11-20T10:32:45;74.82;;;34.60;;
25936;SDS011;13733;51.178;4.450;2022-11-20T10:37:45;72.88;;;34.85;;
25936;SDS011;13733;51.178;4.450;2022-11-20T10:46:12;86.25;;;37.00;;
25936;SDS011;13733;51.178;4.450;2022-11-20T10:48:49;68.80;;;33.15;;
25936;SDS011;13733;51.178;4.450;2022-11-20T11:00:06;81.20;;;35.20;;
25936;SDS011;13733;51.178;4.450;2022-11-20T11:02:43;81.32;;;36.92;;
25936;SDS011;13733;51.178;4.450;2022-11-20T11:05:14;77.60;;;35.28;;
25936;SDS011;13733;51.178;4.450;2022-11-20T11:07:55;70.90;;;34.50;;
25936;SDS011;13733;51.178;4.450;2022-11-20T11:12:57;77.80;;;35.40;;
25936;SDS011;13733;51.178;4.450;2022-11-20T11:15:39;76.43;;;35.58;;
25936;SDS011;13733;51.178;4.450;2022-11-20T11:18:09;77.35;;;34.58;;
25936;SDS011;13733;51.178;4.450;2022-11-20T11:20:36;70.05;;;34.80;;
25936;SDS011;13733;51.178;4.450;2022-11-20T11:23:02;75.30;;;35.85;;
25936;SDS011;13733;51.178;4.450;2022-11-20T11:25:31;77.07;;;35.30;;
25936;SDS011;13733;51.178;4.450;2022-11-20T11:28:18;71.70;;;34.92;;
25936;SDS011;13733;51.178;4.450;2022-11-20T11:30:52;70.10;;;32.88;;
25936;SDS011;13733;51.178;4.450;2022-11-20T11:33:20;73.53;;;33.53;;
25936;SDS011;13733;51.178;4.450;2022-11-20T11:36:04;64.53;;;33.17;;
25936;SDS011;13733;51.178;4.450;2022-11-20T11:38:42;76.35;;;32.38;;
25936;SDS011;13733;51.178;4.450;2022-11-20T11:41:10;61.70;;;32.22;;
25936;SDS011;13733;51.178;4.450;2022-11-20T11:43:48;64.88;;;31.33;;
25936;SDS011;13733;51.178;4.450;2022-11-20T11:46:35;64.22;;;31.35;;
25936;SDS011;13733;51.178;4.450;2022-11-20T11:54:33;66.30;;;31.15;;
25936;SDS011;13733;51.178;4.450;2022-11-20T11:57:37;59.00;;;30.27;;
25936;SDS011;13733;51.178;4.450;2022-11-20T12:00:21;57.20;;;29.38;;
25936;SDS011;13733;51.178;4.450;2022-11-20T12:05:48;59.80;;;29.30;;
25936;SDS011;13733;51.178;4.450;2022-11-20T12:08:27;56.65;;;29.05;;
25936;SDS011;13733;51.178;4.450;2022-11-20T12:13:40;53.30;;;27.98;;
25936;SDS011;13733;51.178;4.450;2022-11-20T12:16:11;53.97;;;27.30;;
25936;SDS011;13733;51.178;4.450;2022-11-20T12:18:39;55.40;;;27.45;;
25936;SDS011;13733;51.178;4.450;2022-11-20T12:24:06;50.10;;;26.73;;
25936;SDS011;13733;51.178;4.450;2022-11-20T12:26:58;47.05;;;25.77;;
25936;SDS011;13733;51.178;4.450;2022-11-20T12:29:50;52.13;;;25.90;;
25936;SDS011;13733;51.178;4.450;2022-11-20T12:35:10;46.92;;;25.13;;
25936;SDS011;13733;51.178;4.450;2022-11-20T12:40:45;39.20;;;21.38;;
25936;SDS011;13733;51.178;4.450;2022-11-20T12:43:22;39.95;;;21.40;;
25936;SDS011;13733;51.178;4.450;2022-11-20T13:08:01;10.88;;;4.57;;
25936;SDS011;13733;51.178;4.450;2022-11-20T13:16:06;14.02;;;5.43;;
25936;SDS011;13733;51.178;4.450;2022-11-20T13:18:41;11.68;;;5.15;;
25936;SDS011;13733;51.178;4.450;2022-11-20T13:21:15;15.02;;;6.50;;
25936;SDS011;13733;51.178;4.450;2022-11-20T13:23:42;13.38;;;5.72;;
25936;SDS011;13733;51.178;4.450;2022-11-20T13:26:19;14.27;;;6.32;;
25936;SDS011;13733;51.178;4.450;2022-11-20T13:28:48;15.52;;;6.03;;
25936;SDS011;13733;51.178;4.450;2022-11-20T13:31:42;13.23;;;6.32;;
25936;SDS011;13733;51.178;4.450;2022-11-20T13:34:11;11.55;;;5.53;;
25936;SDS011;13733;51.178;4.450;2022-11-20T13:36:51;14.52;;;5.65;;
25936;SDS011;13733;51.178;4.450;2022-11-20T13:39:28;14.07;;;5.75;;
25936;SDS011;13733;51.178;4.450;2022-11-20T13:42:45;11.45;;;5.78;;
25936;SDS011;13733;51.178;4.450;2022-11-20T13:44:54;16.35;;;5.53;;
25936;SDS011;13733;51.178;4.450;2022-11-20T13:47:26;8.65;;;4.95;;
25936;SDS011;13733;51.178;4.450;2022-11-20T13:49:53;9.80;;;4.85;;
25936;SDS011;13733;51.178;4.450;2022-11-20T13:55:38;8.75;;;4.90;;
25936;SDS011;13733;51.178;4.450;2022-11-20T14:01:10;7.88;;;4.60;;
25936;SDS011;13733;51.178;4.450;2022-11-20T14:03:41;7.68;;;4.40;;
25936;SDS011;13733;51.178;4.450;2022-11-20T14:06:26;7.18;;;4.03;;
25936;SDS011;13733;51.178;4.450;2022-11-20T14:08:57;9.60;;;4.97;;
25936;SDS011;13733;51.178;4.450;2022-11-20T14:11:24;13.25;;;5.55;;
25936;SDS011;13733;51.178;4.450;2022-11-20T14:13:53;10.63;;;4.30;;
25936;SDS011;13733;51.178;4.450;2022-11-20T14:16:33;9.88;;;4.78;;
25936;SDS011;13733;51.178;4.450;2022-11-20T14:21:45;6.55;;;4.43;;
25936;SDS011;13733;51.178;4.450;2022-11-20T14:24:20;7.47;;;4.20;;
25936;SDS011;13733;51.178;4.450;2022-11-20T14:26:48;6.82;;;4.18;;
25936;SDS011;13733;51.178;4.450;2022-11-20T14:29:19;7.75;;;4.53;;
25936;SDS011;13733;51.178;4.450;2022-11-20T14:31:48;9.70;;;4.40;;
25936;SDS011;13733;51.178;4.450;2022-11-20T14:34:18;11.82;;;4.90;;
25936;SDS011;13733;51.178;4.450;2022-11-20T14:36:47;7.53;;;4.97;;
25936;SDS011;13733;51.178;4.450;2022-11-20T14:39:25;8.70;;;5.30;;
25936;SDS011;13733;51.178;4.450;2022-11-20T14:41:59;9.98;;;5.05;;
25936;SDS011;13733;51.178;4.450;2022-11-20T14:44:27;8.48;;;5.25;;
25936;SDS011;13733;51.178;4.450;2022-11-20T14:46:56;10.20;;;5.13;;
25936;SDS011;13733;51.178;4.450;2022-11-20T14:49:23;8.43;;;4.18;;
25936;SDS011;13733;51.178;4.450;2022-11-20T14:52:00;7.28;;;4.70;;
25936;SDS011;13733;51.178;4.450;2022-11-20T14:54:27;7.07;;;4.30;;
25936;SDS011;13733;51.178;4.450;2022-11-20T14:57:01;8.48;;;4.50;;
25936;SDS011;13733;51.178;4.450;2022-11-20T14:59:29;10.95;;;5.35;;
25936;SDS011;13733;51.178;4.450;2022-11-20T15:02:00;8.65;;;4.78;;
25936;SDS011;13733;51.178;4.450;2022-11-20T15:04:28;7.28;;;4.78;;
25936;SDS011;13733;51.178;4.450;2022-11-20T15:06:55;7.22;;;4.93;;
25936;SDS011;13733;51.178;4.450;2022-11-20T15:09:22;7.38;;;4.05;;
25936;SDS011;13733;51.178;4.450;2022-11-20T15:11:55;6.47;;;4.28;;
25936;SDS011;13733;51.178;4.450;2022-11-20T15:14:23;8.18;;;4.05;;
25936;SDS011;13733;51.178;4.450;2022-11-20T15:16:50;8.48;;;4.72;;
25936;SDS011;13733;51.178;4.450;2022-11-20T15:19:18;6.03;;;4.43;;
25936;SDS011;13733;51.178;4.450;2022-11-20T15:21:45;6.43;;;4.22;;
25936;SDS011;13733;51.178;4.450;2022-11-20T15:24:11;6.50;;;4.30;;
25936;SDS011;13733;51.178;4.450;2022-11-20T15:26:36;6.18;;;4.53;;
25936;SDS011;13733;51.178;4.450;2022-11-20T15:29:06;5.78;;;4.70;;
25936;SDS011;13733;51.178;4.450;2022-11-20T15:31:37;10.70;;;5.03;;
25936;SDS011;13733;51.178;4.450;2022-11-20T15:34:12;6.82;;;4.93;;
25936;SDS011;13733;51.178;4.450;2022-11-20T15:36:40;6.93;;;4.80;;
25936;SDS011;13733;51.178;4.450;2022-11-20T15:39:07;6.93;;;5.03;;
25936;SDS011;13733;51.178;4.450;2022-11-20T15:41:34;9.68;;;5.30;;
25936;SDS011;13733;51.178;4.450;2022-11-20T15:44:01;8.52;;;5.10;;
25936;SDS011;13733;51.178;4.450;2022-11-20T15:46:28;7.60;;;5.20;;
25936;SDS011;13733;51.178;4.450;2022-11-20T15:48:59;5.72;;;4.63;;
25936;SDS011;13733;51.178;4.450;2022-11-20T15:53:57;9.50;;;5.90;;
25936;SDS011;13733;51.178;4.450;2022-11-20T15:56:23;11.50;;;5.68;;
25936;SDS011;13733;51.178;4.450;2022-11-20T15:58:49;9.05;;;5.82;;
25936;SDS011;13733;51.178;4.450;2022-11-20T16:01:16;12.63;;;6.50;;
25936;SDS011;13733;51.178;4.450;2022-11-20T16:03:44;9.50;;;6.40;;
25936;SDS011;13733;51.178;4.450;2022-11-20T16:06:09;10.85;;;7.28;;
25936;SDS011;13733;51.178;4.450;2022-11-20T16:08:36;19.02;;;6.53;;
25936;SDS011;13733;51.178;4.450;2022-11-20T16:11:01;14.05;;;6.80;;
25936;SDS011;13733;51.178;4.450;2022-11-20T16:13:27;14.90;;;7.25;;
25936;SDS011;13733;51.178;4.450;2022-11-20T16:16:21;18.50;;;6.60;;
25936;SDS011;13733;51.178;4.450;2022-11-20T16:18:50;18.17;;;6.78;;
25936;SDS011;13733;51.178;4.450;2022-11-20T16:21:16;25.08;;;7.18;;
25936;SDS011;13733;51.178;4.450;2022-11-20T16:23:42;15.25;;;6.97;;
25936;SDS011;13733;51.178;4.450;2022-11-20T16:26:09;17.05;;;6.53;;
25936;SDS011;13733;51.178;4.450;2022-11-20T16:28:35;23.00;;;7.53;;
25936;SDS011;13733;51.178;4.450;2022-11-20T16:31:11;25.30;;;7.38;;
25936;SDS011;13733;51.178;4.450;2022-11-20T16:33:38;17.42;;;5.88;;
25936;SDS011;13733;51.178;4.450;2022-11-20T16:36:08;16.73;;;5.50;;
25936;SDS011;13733;51.178;4.450;2022-11-20T16:38:38;18.58;;;5.35;;
25936;SDS011;13733;51.178;4.450;2022-11-20T16:41:05;23.42;;;5.70;;
25936;SDS011;13733;51.178;4.450;2022-11-20T16:43:59;25.55;;;6.30;;
25936;SDS011;13733;51.178;4.450;2022-11-20T16:46:26;24.67;;;5.90;;